createdAt,value
2018-03-28T00:00:10.556Z,81.59
2018-03-28T00:02:38.835Z,81.83
2018-03-28T00:05:07.214Z,81.76
2018-03-28T00:07:35.489Z,82.09
2018-03-28T00:10:04.692Z,81.94
2018-03-28T00:12:32.961Z,82.21
2018-03-28T00:15:01.269Z,82.06
2018-03-28T00:17:29.675Z,82.10
2018-03-28T00:19:57.992Z,82.12
2018-03-28T00:22:26.300Z,82.40
2018-03-28T00:24:54.652Z,82.84
2018-03-28T00:27:23.334Z,82.96
2018-03-28T00:29:51.629Z,82.64
2018-03-28T00:32:20.029Z,82.89
2018-03-28T00:34:48.768Z,83.08
2018-03-28T00:37:17.066Z,82.83
2018-03-28T00:39:45.358Z,82.66
2018-03-28T00:42:13.696Z,82.64
2018-03-28T00:44:41.975Z,82.49
2018-03-28T00:47:10.298Z,82.54
2018-03-28T00:49:38.556Z,82.53
2018-03-28T00:52:06.929Z,82.40
2018-03-28T00:54:35.143Z,82.49
2018-03-28T00:57:03.452Z,82.94
2018-03-28T00:59:31.737Z,82.91
2018-03-28T01:02:00.037Z,82.88
2018-03-28T01:04:28.313Z,82.84
2018-03-28T01:06:56.634Z,82.70
2018-03-28T01:09:24.931Z,82.78
2018-03-28T01:11:53.231Z,83.02
2018-03-28T01:14:21.512Z,82.76
2018-03-28T01:16:49.835Z,83.11
2018-03-28T01:19:18.106Z,83.18
2018-03-28T01:21:46.416Z,83.37
2018-03-28T01:24:14.725Z,83.39
2018-03-28T01:26:43.044Z,83.51
2018-03-28T01:29:11.354Z,83.32
2018-03-28T01:31:39.757Z,83.36
2018-03-28T01:34:08.070Z,83.19
2018-03-28T01:36:36.371Z,83.31
2018-03-28T01:39:04.662Z,83.17
2018-03-28T01:41:33.303Z,83.20
2018-03-28T01:44:01.631Z,83.10
2018-03-28T01:46:29.955Z,83.01
2018-03-28T01:48:58.272Z,83.31
2018-03-28T01:51:26.550Z,83.37
2018-03-28T01:53:54.890Z,83.47
2018-03-28T01:56:23.163Z,83.17
2018-03-28T01:58:51.484Z,83.11
2018-03-28T02:01:19.788Z,83.07
2018-03-28T02:03:48.123Z,82.94
2018-03-28T02:06:16.505Z,83.00
2018-03-28T02:08:44.806Z,83.02
2018-03-28T02:11:13.100Z,83.01
2018-03-28T02:13:41.438Z,83.17
2018-03-28T02:16:09.734Z,83.13
2018-03-28T02:18:38.028Z,83.07
2018-03-28T02:21:06.323Z,83.04
2018-03-28T02:23:34.656Z,82.97
2018-03-28T02:26:02.943Z,83.00
2018-03-28T02:28:31.234Z,82.87
2018-03-28T02:30:59.619Z,83.09
2018-03-28T02:33:27.896Z,83.02
2018-03-28T02:35:56.198Z,83.22
2018-03-28T02:38:24.532Z,83.03
2018-03-28T02:40:52.883Z,82.83
2018-03-28T02:43:21.173Z,82.42
2018-03-28T02:45:49.813Z,82.52
2018-03-28T02:48:18.114Z,82.31
2018-03-28T02:50:46.409Z,82.21
2018-03-28T02:53:14.701Z,82.41
2018-03-28T02:55:43.036Z,82.59
2018-03-28T02:58:11.445Z,82.66
2018-03-28T03:00:39.771Z,82.45
2018-03-28T03:03:08.101Z,82.60
2018-03-28T03:05:36.380Z,82.88
2018-03-28T03:08:05.719Z,82.75
2018-03-28T03:10:34.046Z,82.84
2018-03-28T03:13:02.346Z,83.02
2018-03-28T03:15:30.635Z,83.23
2018-03-28T03:17:58.948Z,83.44
2018-03-28T03:20:27.238Z,83.94
2018-03-28T03:22:55.502Z,83.98
2018-03-28T03:25:23.854Z,83.84
2018-03-28T03:27:52.185Z,83.72
2018-03-28T03:30:20.455Z,83.36
2018-03-28T03:32:48.816Z,83.32
2018-03-28T03:35:17.112Z,83.38
2018-03-28T03:37:45.512Z,83.49
2018-03-28T03:40:13.798Z,83.32
2018-03-28T03:42:42.094Z,82.74
2018-03-28T03:45:10.389Z,82.40
2018-03-28T03:47:38.680Z,81.75
2018-03-28T03:50:06.958Z,81.49
2018-03-28T03:52:35.244Z,81.27
2018-03-28T03:55:04.209Z,81.42
2018-03-28T03:57:32.511Z,81.22
2018-03-28T04:00:00.774Z,80.89
2018-03-28T04:02:29.119Z,80.66
2018-03-28T04:04:57.397Z,80.72
2018-03-28T04:07:25.783Z,80.18
2018-03-28T04:09:54.054Z,80.08
2018-03-28T04:12:22.349Z,79.98
2018-03-28T04:14:50.629Z,79.75
2018-03-28T04:17:18.931Z,79.46
2018-03-28T04:19:47.292Z,79.39
2018-03-28T04:22:15.581Z,79.29
2018-03-28T04:24:43.868Z,79.26
2018-03-28T04:27:12.307Z,79.10
2018-03-28T04:29:40.628Z,79.10
2018-03-28T04:32:08.911Z,79.27
2018-03-28T04:34:37.219Z,78.92
2018-03-28T04:37:05.519Z,78.85
2018-03-28T04:39:34.102Z,79.00
2018-03-28T04:42:02.395Z,78.92
2018-03-28T04:44:30.683Z,78.96
2018-03-28T04:46:58.968Z,78.72
2018-03-28T04:49:27.310Z,78.24
2018-03-28T04:51:55.576Z,77.94
2018-03-28T04:54:23.894Z,77.72
2018-03-28T04:56:52.188Z,77.54
2018-03-28T04:59:20.511Z,77.08
2018-03-28T05:01:48.798Z,77.02
2018-03-28T05:04:17.921Z,77.09
2018-03-28T05:06:46.195Z,77.95
2018-03-28T05:09:14.484Z,77.69
2018-03-28T05:11:42.753Z,77.27
2018-03-28T05:14:11.047Z,77.27
2018-03-28T05:16:39.359Z,77.34
2018-03-28T05:19:07.646Z,76.87
2018-03-28T05:21:35.945Z,76.59
2018-03-28T05:24:04.817Z,76.10
2018-03-28T05:26:33.096Z,76.40
2018-03-28T05:29:01.462Z,76.11
2018-03-28T05:31:29.758Z,75.63
2018-03-28T05:33:58.034Z,75.72
2018-03-28T05:36:26.331Z,75.52
2018-03-28T05:38:54.608Z,75.61
2018-03-28T05:41:22.945Z,75.28
2018-03-28T05:43:51.241Z,74.22
2018-03-28T05:46:19.560Z,74.11
2018-03-28T05:48:47.979Z,74.41
2018-03-28T05:51:16.316Z,74.46
2018-03-28T05:53:44.661Z,74.57
2018-03-28T05:56:12.935Z,73.98
2018-03-28T05:58:41.213Z,73.49
2018-03-28T06:01:09.572Z,73.19
2018-03-28T06:03:38.805Z,72.86
2018-03-28T06:06:07.557Z,73.10
2018-03-28T06:08:35.834Z,73.21
2018-03-28T06:11:04.335Z,73.07
2018-03-28T06:13:32.590Z,72.35
2018-03-28T06:16:00.875Z,72.51
2018-03-28T06:18:29.178Z,73.03
2018-03-28T06:20:57.466Z,72.83
2018-03-28T06:23:25.751Z,72.26
2018-03-28T06:25:54.048Z,72.45
2018-03-28T06:28:22.465Z,72.39
2018-03-28T06:30:50.742Z,72.14
2018-03-28T06:33:19.079Z,72.50
2018-03-28T06:35:47.384Z,72.76
2018-03-28T06:38:15.664Z,72.61
2018-03-28T06:40:43.921Z,72.82
2018-03-28T06:43:12.315Z,73.23
2018-03-28T06:45:40.591Z,72.94
2018-03-28T06:48:08.900Z,72.53
2018-03-28T06:50:37.167Z,72.75
2018-03-28T06:53:05.501Z,72.81
2018-03-28T06:55:33.773Z,72.87
2018-03-28T06:58:02.158Z,72.55
2018-03-28T07:00:30.420Z,72.48
2018-03-28T07:02:58.741Z,72.49
2018-03-28T07:05:27.026Z,72.22
2018-03-28T07:07:55.348Z,71.58
2018-03-28T07:10:23.835Z,72.01
2018-03-28T07:12:52.131Z,71.76
2018-03-28T07:15:20.455Z,72.02
2018-03-28T07:20:16.231Z,71.79
2018-03-28T07:22:45.648Z,71.48
2018-03-28T07:25:14.125Z,71.32
2018-03-28T07:27:43.067Z,71.07
2018-03-28T07:30:11.574Z,71.16
2018-03-28T07:32:39.849Z,71.21
2018-03-28T07:35:08.209Z,71.27
2018-03-28T07:37:36.598Z,71.11
2018-03-28T07:40:04.921Z,70.93
2018-03-28T07:42:33.209Z,71.41
2018-03-28T07:45:01.644Z,70.84
2018-03-28T07:47:30.092Z,71.09
2018-03-28T07:49:58.415Z,70.94
2018-03-28T07:52:26.805Z,70.55
2018-03-28T07:54:55.120Z,70.32
2018-03-28T07:57:23.432Z,70.07
2018-03-28T07:59:51.734Z,69.54
2018-03-28T08:02:20.130Z,70.13
2018-03-28T08:04:48.959Z,69.91
2018-03-28T08:07:17.270Z,69.81
2018-03-28T08:09:45.620Z,69.12
2018-03-28T08:12:13.897Z,68.85
2018-03-28T08:14:42.187Z,69.11
2018-03-28T08:17:10.525Z,68.21
2018-03-28T08:19:38.986Z,68.09
2018-03-28T08:22:07.276Z,68.01
2018-03-28T08:24:35.552Z,68.09
2018-03-28T08:27:04.386Z,67.98
2018-03-28T08:29:33.802Z,67.39
2018-03-28T08:32:02.805Z,67.52
2018-03-28T08:34:31.134Z,67.60
2018-03-28T08:36:59.464Z,67.50
2018-03-28T08:39:27.736Z,67.48
2018-03-28T08:41:56.080Z,66.88
2018-03-28T08:44:24.372Z,66.84
2018-03-28T08:46:52.651Z,67.03
2018-03-28T08:49:20.954Z,66.51
2018-03-28T08:51:49.278Z,66.10
2018-03-28T08:54:17.556Z,66.36
2018-03-28T08:56:45.839Z,65.82
2018-03-28T08:59:14.125Z,66.06
2018-03-28T09:01:42.565Z,65.54
2018-03-28T09:04:10.933Z,64.56
2018-03-28T09:06:39.248Z,63.73
2018-03-28T09:09:07.610Z,63.37
2018-03-28T09:11:35.958Z,62.67
2018-03-28T09:14:05.103Z,62.20
2018-03-28T09:16:33.416Z,62.40
2018-03-28T09:19:01.868Z,62.60
2018-03-28T09:21:30.193Z,61.66
2018-03-28T09:23:58.504Z,61.93
2018-03-28T09:26:26.920Z,61.65
2018-03-28T09:28:55.292Z,61.45
2018-03-28T09:31:23.640Z,60.77
2018-03-28T09:33:51.992Z,60.75
2018-03-28T09:36:20.280Z,60.27
2018-03-28T09:38:48.691Z,60.08
2018-03-28T09:41:17.085Z,59.71
2018-03-28T09:43:45.560Z,60.27
2018-03-28T09:46:13.849Z,58.81
2018-03-28T09:48:45.232Z,58.74
2018-03-28T09:51:15.235Z,59.42
2018-03-28T09:53:43.558Z,59.38
2018-03-28T09:56:11.864Z,59.24
2018-03-28T09:58:40.174Z,58.71
2018-03-28T10:01:08.472Z,58.53
2018-03-28T10:03:42.485Z,58.18
2018-03-28T10:06:10.778Z,58.33
2018-03-28T10:08:39.112Z,58.26
2018-03-28T10:11:07.391Z,58.20
2018-03-28T10:13:35.704Z,58.37
2018-03-28T10:16:04.000Z,58.10
2018-03-28T10:18:32.337Z,57.09
2018-03-28T10:21:00.626Z,56.73
2018-03-28T10:23:28.964Z,55.65
2018-03-28T10:25:57.239Z,56.06
2018-03-28T10:28:25.571Z,55.81
2018-03-28T10:30:54.048Z,55.50
2018-03-28T10:33:22.469Z,55.10
2018-03-28T10:35:52.042Z,54.20
2018-03-28T10:38:20.726Z,54.15
2018-03-28T10:40:49.020Z,53.59
2018-03-28T10:43:17.301Z,53.19
2018-03-28T10:45:45.607Z,53.21
2018-03-28T10:48:13.894Z,53.42
2018-03-28T10:50:42.288Z,53.51
2018-03-28T10:53:11.000Z,52.72
2018-03-28T10:55:39.298Z,52.24
2018-03-28T10:58:07.628Z,51.94
2018-03-28T11:00:36.741Z,51.95
2018-03-28T11:03:05.545Z,52.02
2018-03-28T11:05:35.018Z,52.13
2018-03-28T11:08:04.274Z,52.23
2018-03-28T11:10:32.676Z,52.15
2018-03-28T11:13:00.956Z,52.84
2018-03-28T11:15:29.412Z,53.05
2018-03-28T11:17:57.656Z,53.06
2018-03-28T11:20:25.970Z,53.41
2018-03-28T11:22:54.288Z,53.58
2018-03-28T11:25:24.924Z,54.24
2018-03-28T11:27:54.021Z,54.61
2018-03-28T11:30:22.339Z,55.12
2018-03-28T11:32:50.733Z,56.77
2018-03-28T11:35:21.074Z,57.34
2018-03-28T11:37:51.385Z,57.57
2018-03-28T11:40:19.834Z,57.30
2018-03-28T11:42:48.178Z,57.08
2018-03-28T11:45:18.462Z,57.32
2018-03-28T11:47:46.868Z,57.88
2018-03-28T11:50:15.175Z,58.15
2018-03-28T11:52:43.567Z,58.31
2018-03-28T11:55:11.861Z,59.00
2018-03-28T11:57:40.165Z,59.40
2018-03-28T12:00:09.080Z,59.79
2018-03-28T12:02:37.740Z,61.58
2018-03-28T12:05:06.032Z,62.41
2018-03-28T12:07:35.599Z,63.83
2018-03-28T12:10:04.811Z,63.79
2018-03-28T12:12:34.289Z,64.08
2018-03-28T12:15:02.623Z,65.24
2018-03-28T12:17:30.955Z,67.01
2018-03-28T12:19:59.508Z,67.06
2018-03-28T12:22:27.852Z,67.87
2018-03-28T12:24:56.156Z,67.58
2018-03-28T12:27:24.767Z,67.69
2018-03-28T12:29:54.467Z,68.21
2018-03-28T12:32:22.749Z,68.95
2018-03-28T12:34:51.094Z,68.93
2018-03-28T12:37:20.383Z,68.87
2018-03-28T12:39:48.703Z,69.50
2018-03-28T12:42:16.990Z,70.38
2018-03-28T12:44:45.330Z,71.19
2018-03-28T12:47:13.725Z,71.91
2018-03-28T12:49:42.283Z,72.68
2018-03-28T12:52:10.533Z,72.33
2018-03-28T12:54:38.821Z,72.01
2018-03-28T12:57:07.130Z,73.35
2018-03-28T12:59:35.607Z,72.93
2018-03-28T13:02:03.882Z,73.49
2018-03-28T13:04:32.224Z,74.16
2018-03-28T13:07:00.521Z,74.25
2018-03-28T13:09:28.845Z,74.87
2018-03-28T13:11:57.156Z,73.01
2018-03-28T13:14:25.447Z,74.44
2018-03-28T13:16:53.763Z,74.64
2018-03-28T13:19:22.091Z,73.85
2018-03-28T13:21:50.373Z,75.02
2018-03-28T13:24:18.783Z,76.19
2018-03-28T13:26:47.110Z,76.66
2018-03-28T13:29:15.380Z,76.63
2018-03-28T13:31:43.709Z,76.54
2018-03-28T13:34:12.040Z,75.85
2018-03-28T13:36:40.310Z,76.40
2018-03-28T13:39:08.648Z,77.14
2018-03-28T13:41:37.033Z,76.45
2018-03-28T13:44:06.154Z,76.88
2018-03-28T13:46:35.940Z,75.88
2018-03-28T13:49:05.059Z,77.35
2018-03-28T13:51:33.420Z,77.37
2018-03-28T13:54:01.695Z,78.15
2018-03-28T13:56:30.125Z,78.15
2018-03-28T13:58:58.777Z,77.78
2018-03-28T14:01:27.926Z,78.29
2018-03-28T14:03:56.376Z,78.73
2018-03-28T14:06:24.681Z,78.39
2018-03-28T14:08:52.978Z,78.32
2018-03-28T14:11:21.981Z,77.69
2018-03-28T14:13:50.412Z,78.57
2018-03-28T14:16:18.754Z,77.79
2018-03-28T14:18:47.025Z,78.93
2018-03-28T14:21:15.374Z,79.88
2018-03-28T14:23:43.766Z,78.73
2018-03-28T14:26:12.075Z,79.30
2018-03-28T14:28:40.380Z,79.52
2018-03-28T14:31:08.765Z,79.26
2018-03-28T14:33:37.134Z,79.22
2018-03-28T14:36:06.375Z,78.40
2018-03-28T14:38:34.691Z,79.57
2018-03-28T14:41:04.595Z,79.92
2018-03-28T14:43:32.905Z,79.72
2018-03-28T14:46:01.239Z,79.18
2018-03-28T14:48:29.596Z,78.91
2018-03-28T14:50:57.861Z,79.49
2018-03-28T14:53:26.212Z,78.94
2018-03-28T14:55:54.538Z,78.44
2018-03-28T14:58:22.887Z,78.83
2018-03-28T15:00:51.120Z,79.63
2018-03-28T15:03:19.513Z,78.65
2018-03-28T15:05:47.789Z,78.03
2018-03-28T15:08:16.269Z,77.93
2018-03-28T15:10:44.536Z,78.51
2018-03-28T15:13:13.040Z,79.09
2018-03-28T15:15:41.292Z,78.91
2018-03-28T15:18:09.608Z,78.84
2018-03-28T15:20:37.929Z,79.10
2018-03-28T15:23:06.280Z,79.29
2018-03-28T15:25:34.540Z,78.94
2018-03-28T15:28:02.823Z,78.92
2018-03-28T15:30:31.159Z,79.18
2018-03-28T15:32:59.507Z,79.22
2018-03-28T15:35:27.845Z,79.67
2018-03-28T15:37:56.101Z,79.20
2018-03-28T15:40:24.423Z,79.54
2018-03-28T15:42:52.705Z,79.78
2018-03-28T15:45:21.011Z,79.34
2018-03-28T15:47:49.380Z,79.29
2018-03-28T15:50:17.747Z,78.65
2018-03-28T15:52:46.124Z,78.79
2018-03-28T15:55:14.456Z,78.95
2018-03-28T15:57:42.770Z,79.10
2018-03-28T16:00:11.068Z,79.08
2018-03-28T16:02:39.350Z,79.36
2018-03-28T16:05:07.703Z,79.41
2018-03-28T16:07:35.992Z,79.48
2018-03-28T16:10:04.367Z,79.68
2018-03-28T16:12:33.566Z,79.82
2018-03-28T16:15:01.906Z,79.39
2018-03-28T16:17:30.240Z,79.83
2018-03-28T16:19:58.735Z,79.73
2018-03-28T16:22:27.075Z,79.87
2018-03-28T16:24:55.392Z,79.88
2018-03-28T16:27:24.364Z,79.69
2018-03-28T16:29:52.706Z,79.67
2018-03-28T16:32:20.934Z,79.33
2018-03-28T16:34:49.205Z,79.40
2018-03-28T16:37:17.550Z,79.08
2018-03-28T16:39:45.812Z,79.26
2018-03-28T16:42:14.162Z,79.16
2018-03-28T16:44:42.567Z,79.11
2018-03-28T16:47:10.997Z,79.12
2018-03-28T16:49:39.336Z,79.71
2018-03-28T16:52:07.671Z,79.65
2018-03-28T16:54:36.039Z,79.70
2018-03-28T16:57:05.250Z,79.79
2018-03-28T16:59:33.683Z,79.80
2018-03-28T17:02:02.072Z,79.88
2018-03-28T17:04:30.390Z,79.49
2018-03-28T17:06:58.734Z,79.45
2018-03-28T17:09:27.082Z,79.29
2018-03-28T17:11:55.388Z,79.07
2018-03-28T17:14:23.672Z,79.42
2018-03-28T17:16:52.008Z,79.66
2018-03-28T17:19:20.355Z,79.65
2018-03-28T17:21:48.651Z,79.32
2018-03-28T17:24:16.949Z,79.16
2018-03-28T17:26:45.285Z,79.12
2018-03-28T17:29:13.612Z,79.08
2018-03-28T17:31:41.933Z,79.21
2018-03-28T17:34:10.229Z,79.33
2018-03-28T17:36:38.507Z,79.24
2018-03-28T17:39:06.817Z,79.04
2018-03-28T17:41:35.271Z,79.88
2018-03-28T17:44:03.578Z,79.69
2018-03-28T17:46:31.974Z,79.87
2018-03-28T17:49:00.355Z,79.50
2018-03-28T17:51:28.678Z,79.40
2018-03-28T17:53:56.952Z,79.64
2018-03-28T17:56:25.247Z,79.78
2018-03-28T17:58:54.299Z,80.17
2018-03-28T18:01:23.517Z,79.92
2018-03-28T18:03:52.002Z,80.00
2018-03-28T18:06:20.340Z,80.73
2018-03-28T18:08:49.544Z,80.74
2018-03-28T18:11:17.950Z,80.70
2018-03-28T18:13:47.024Z,81.30
2018-03-28T18:16:15.915Z,81.89
2018-03-28T18:18:44.208Z,82.43
2018-03-28T18:21:12.495Z,82.61
2018-03-28T18:23:41.529Z,82.48
2018-03-28T18:26:09.819Z,81.51
2018-03-28T18:28:38.158Z,80.25
2018-03-28T18:31:06.492Z,79.64
2018-03-28T18:33:34.807Z,79.30
2018-03-28T18:36:03.147Z,79.45
2018-03-28T18:38:31.447Z,79.37
2018-03-28T18:40:59.752Z,79.82
2018-03-28T18:43:28.020Z,80.13
2018-03-28T18:45:56.781Z,79.12
2018-03-28T18:48:25.131Z,79.18
2018-03-28T18:50:53.603Z,78.96
2018-03-28T18:53:21.959Z,78.94
2018-03-28T18:55:50.547Z,78.81
2018-03-28T18:58:18.846Z,78.50
2018-03-28T19:00:47.159Z,78.51
2018-03-28T19:03:15.496Z,78.96
2018-03-28T19:05:43.817Z,79.30
2018-03-28T19:08:12.104Z,79.15
2018-03-28T19:10:40.388Z,79.15
2018-03-28T19:13:08.698Z,79.33
2018-03-28T19:15:37.002Z,78.72
2018-03-28T19:18:05.504Z,78.47
2018-03-28T19:20:33.834Z,78.52
2018-03-28T19:23:02.142Z,78.32
2018-03-28T19:25:30.436Z,77.75
2018-03-28T19:27:58.781Z,77.51
2018-03-28T19:30:27.136Z,77.76
2018-03-28T19:32:55.350Z,77.74
2018-03-28T19:35:23.643Z,77.75
2018-03-28T19:37:51.976Z,77.54
2018-03-28T19:40:20.272Z,77.49
2018-03-28T19:42:48.591Z,77.50
2018-03-28T19:45:16.853Z,75.91
2018-03-28T19:47:45.200Z,74.80
2018-03-28T19:50:13.496Z,74.18
2018-03-28T19:52:41.843Z,73.76
2018-03-28T19:55:10.163Z,73.40
2018-03-28T19:57:38.481Z,73.57
2018-03-28T20:00:06.788Z,71.33
2018-03-28T20:02:35.175Z,71.12
2018-03-28T20:05:03.540Z,70.61
2018-03-28T20:07:31.894Z,69.98
2018-03-28T20:10:00.316Z,68.98
2018-03-28T20:12:28.676Z,67.30
2018-03-28T20:14:57.103Z,67.03
2018-03-28T20:17:25.468Z,66.49
2018-03-28T20:19:53.772Z,67.05
2018-03-28T20:22:22.232Z,67.08
2018-03-28T20:24:50.569Z,66.47
2018-03-28T20:27:18.965Z,66.09
2018-03-28T20:29:47.369Z,65.81
2018-03-28T20:32:16.006Z,65.34
2018-03-28T20:34:44.355Z,65.45
2018-03-28T20:37:12.713Z,65.25
2018-03-28T20:39:41.754Z,65.44
2018-03-28T20:42:10.945Z,66.05
2018-03-28T20:44:40.177Z,65.53
2018-03-28T20:47:09.192Z,65.62
2018-03-28T20:49:37.540Z,65.09
2018-03-28T20:52:05.969Z,65.67
2018-03-28T20:54:34.335Z,65.43
2018-03-28T20:57:03.305Z,65.38
2018-03-28T20:59:31.692Z,66.35
2018-03-28T21:02:00.072Z,66.85
2018-03-28T21:04:28.362Z,67.63
2018-03-28T21:06:56.628Z,67.69
2018-03-28T21:09:25.089Z,68.26
2018-03-28T21:11:53.666Z,68.20
2018-03-28T21:14:21.943Z,67.60
2018-03-28T21:16:50.215Z,67.90
2018-03-28T21:19:19.212Z,68.62
2018-03-28T21:21:47.519Z,68.32
2018-03-28T21:24:15.838Z,68.09
2018-03-28T21:26:44.139Z,68.11
2018-03-28T21:29:13.348Z,68.19
2018-03-28T21:31:41.603Z,68.38
2018-03-28T21:34:09.970Z,68.34
2018-03-28T21:36:38.257Z,68.49
2018-03-28T21:39:06.543Z,68.56
2018-03-28T21:41:34.797Z,68.75
2018-03-28T21:44:03.109Z,69.01
2018-03-28T21:46:31.419Z,69.16
2018-03-28T21:48:59.694Z,68.85
2018-03-28T21:51:28.008Z,68.87
2018-03-28T21:53:56.606Z,68.68
2018-03-28T21:56:24.886Z,69.01
2018-03-28T21:58:53.445Z,68.81
2018-03-28T22:01:21.727Z,68.98
2018-03-28T22:03:50.028Z,68.77
2018-03-28T22:06:18.338Z,69.22
2018-03-28T22:08:46.610Z,69.78
2018-03-28T22:11:14.900Z,69.91
2018-03-28T22:13:43.191Z,70.00
2018-03-28T22:16:11.550Z,69.81
2018-03-28T22:18:39.764Z,69.62
2018-03-28T22:21:08.065Z,69.87
2018-03-28T22:23:36.402Z,70.07
2018-03-28T22:26:05.575Z,69.66
2018-03-28T22:28:33.838Z,70.11
2018-03-28T22:31:02.441Z,70.18
2018-03-28T22:33:30.704Z,70.34
2018-03-28T22:35:59.007Z,69.98
2018-03-28T22:38:27.296Z,70.38
2018-03-28T22:40:55.644Z,69.75
2018-03-28T22:43:23.878Z,69.98
2018-03-28T22:45:52.239Z,69.52
2018-03-28T22:48:20.535Z,70.62
2018-03-28T22:50:48.812Z,69.95
2018-03-28T22:53:17.092Z,68.58
2018-03-28T22:55:45.418Z,68.28
2018-03-28T22:58:13.747Z,67.55
2018-03-28T23:00:42.055Z,67.13
2018-03-28T23:03:10.354Z,67.31
2018-03-28T23:05:38.644Z,66.15
2018-03-28T23:08:07.693Z,66.41
2018-03-28T23:10:35.966Z,65.95
2018-03-28T23:13:04.329Z,65.29
2018-03-28T23:15:32.578Z,65.23
2018-03-28T23:18:00.886Z,65.16
2018-03-28T23:20:29.150Z,63.93
2018-03-28T23:22:57.456Z,63.28
2018-03-28T23:25:25.712Z,62.28
2018-03-28T23:27:54.025Z,60.31
2018-03-28T23:30:22.298Z,59.30
2018-03-28T23:32:50.597Z,58.61
2018-03-28T23:35:18.933Z,58.62
2018-03-28T23:37:47.239Z,58.22
2018-03-28T23:40:15.506Z,57.86
2018-03-28T23:42:43.824Z,58.29
2018-03-28T23:45:12.207Z,58.91
2018-03-28T23:47:40.485Z,59.07
2018-03-28T23:50:08.764Z,59.97
2018-03-28T23:52:37.019Z,59.61
2018-03-28T23:55:05.331Z,60.01
2018-03-28T23:57:33.593Z,59.98
